sensor_id;sensor_type;location;lat;lon;timestamp;temperature;humidity
37232;DHT22;23125;48.156;15.954;2023-07-29T00:00:43;23.40;55.50
37232;DHT22;23125;48.156;15.954;2023-07-29T00:03:10;23.40;55.60
37232;DHT22;23125;48.156;15.954;2023-07-29T00:05:37;23.30;55.70
37232;DHT22;23125;48.156;15.954;2023-07-29T00:08:03;23.30;55.70
37232;DHT22;23125;48.156;15.954;2023-07-29T00:10:32;23.30;55.80
37232;DHT22;23125;48.156;15.954;2023-07-29T00:12:58;23.30;55.90
37232;DHT22;23125;48.156;15.954;2023-07-29T00:15:24;23.30;55.90
37232;DHT22;23125;48.156;15.954;2023-07-29T00:17:50;23.20;55.90
37232;DHT22;23125;48.156;15.954;2023-07-29T00:20:16;23.20;55.90
37232;DHT22;23125;48.156;15.954;2023-07-29T00:22:42;23.20;56.00
37232;DHT22;23125;48.156;15.954;2023-07-29T00:25:08;23.20;56.00
37232;DHT22;23125;48.156;15.954;2023-07-29T00:27:34;23.10;56.00
37232;DHT22;23125;48.156;15.954;2023-07-29T00:29:59;23.10;56.20
37232;DHT22;23125;48.156;15.954;2023-07-29T00:32:29;23.10;56.30
37232;DHT22;23125;48.156;15.954;2023-07-29T00:34:55;23.10;56.30
37232;DHT22;23125;48.156;15.954;2023-07-29T00:37:21;23.10;56.30
37232;DHT22;23125;48.156;15.954;2023-07-29T00:39:47;23.10;56.40
37232;DHT22;23125;48.156;15.954;2023-07-29T00:42:13;23.10;56.50
37232;DHT22;23125;48.156;15.954;2023-07-29T00:44:39;23.10;56.50
37232;DHT22;23125;48.156;15.954;2023-07-29T00:47:05;23.00;56.60
37232;DHT22;23125;48.156;15.954;2023-07-29T00:49:32;23.00;56.50
37232;DHT22;23125;48.156;15.954;2023-07-29T00:51:58;23.00;56.70
37232;DHT22;23125;48.156;15.954;2023-07-29T00:54:24;22.90;56.70
37232;DHT22;23125;48.156;15.954;2023-07-29T00:56:51;22.90;56.80
37232;DHT22;23125;48.156;15.954;2023-07-29T00:59:16;22.90;56.90
37232;DHT22;23125;48.156;15.954;2023-07-29T01:01:42;22.90;56.90
37232;DHT22;23125;48.156;15.954;2023-07-29T01:04:08;22.90;57.00
37232;DHT22;23125;48.156;15.954;2023-07-29T01:07:01;22.90;57.10
37232;DHT22;23125;48.156;15.954;2023-07-29T01:09:55;22.80;57.10
37232;DHT22;23125;48.156;15.954;2023-07-29T01:12:28;22.80;57.20
37232;DHT22;23125;48.156;15.954;2023-07-29T01:17:36;22.80;57.20
37232;DHT22;23125;48.156;15.954;2023-07-29T01:20:14;22.70;57.20
37232;DHT22;23125;48.156;15.954;2023-07-29T01:22:40;22.70;57.20
37232;DHT22;23125;48.156;15.954;2023-07-29T01:25:07;22.70;57.30
37232;DHT22;23125;48.156;15.954;2023-07-29T01:27:33;22.70;57.90
37232;DHT22;23125;48.156;15.954;2023-07-29T01:29:59;22.70;57.40
37232;DHT22;23125;48.156;15.954;2023-07-29T01:32:37;22.70;57.50
37232;DHT22;23125;48.156;15.954;2023-07-29T01:35:45;22.60;57.50
37232;DHT22;23125;48.156;15.954;2023-07-29T01:38:20;22.60;57.70
37232;DHT22;23125;48.156;15.954;2023-07-29T01:40:49;22.50;57.80
37232;DHT22;23125;48.156;15.954;2023-07-29T01:43:17;22.50;58.00
37232;DHT22;23125;48.156;15.954;2023-07-29T01:45:44;22.50;58.20
37232;DHT22;23125;48.156;15.954;2023-07-29T01:48:10;22.50;58.30
37232;DHT22;23125;48.156;15.954;2023-07-29T01:50:36;22.50;58.40
37232;DHT22;23125;48.156;15.954;2023-07-29T01:53:02;22.50;58.50
37232;DHT22;23125;48.156;15.954;2023-07-29T01:55:29;22.50;58.60
37232;DHT22;23125;48.156;15.954;2023-07-29T01:57:54;22.50;58.70
37232;DHT22;23125;48.156;15.954;2023-07-29T02:00:21;22.60;58.80
37232;DHT22;23125;48.156;15.954;2023-07-29T02:02:47;22.60;58.80
37232;DHT22;23125;48.156;15.954;2023-07-29T02:05:13;22.60;58.80
37232;DHT22;23125;48.156;15.954;2023-07-29T02:07:39;22.60;58.90
37232;DHT22;23125;48.156;15.954;2023-07-29T02:10:05;22.70;58.90
37232;DHT22;23125;48.156;15.954;2023-07-29T02:12:31;22.70;59.00
37232;DHT22;23125;48.156;15.954;2023-07-29T02:14:56;22.70;59.10
37232;DHT22;23125;48.156;15.954;2023-07-29T02:17:22;22.70;59.00
37232;DHT22;23125;48.156;15.954;2023-07-29T02:19:48;22.70;59.00
37232;DHT22;23125;48.156;15.954;2023-07-29T02:22:16;22.70;59.10
37232;DHT22;23125;48.156;15.954;2023-07-29T02:24:42;22.80;59.20
37232;DHT22;23125;48.156;15.954;2023-07-29T02:27:08;22.80;59.30
37232;DHT22;23125;48.156;15.954;2023-07-29T02:29:34;22.80;59.30
37232;DHT22;23125;48.156;15.954;2023-07-29T02:32:00;22.80;59.30
37232;DHT22;23125;48.156;15.954;2023-07-29T02:34:26;22.80;59.40
37232;DHT22;23125;48.156;15.954;2023-07-29T02:36:52;22.90;59.50
37232;DHT22;23125;48.156;15.954;2023-07-29T02:39:18;22.80;59.60
37232;DHT22;23125;48.156;15.954;2023-07-29T02:41:43;22.80;59.70
37232;DHT22;23125;48.156;15.954;2023-07-29T02:44:09;22.80;59.70
37232;DHT22;23125;48.156;15.954;2023-07-29T02:46:35;22.80;59.90
37232;DHT22;23125;48.156;15.954;2023-07-29T02:49:04;22.80;59.90
37232;DHT22;23125;48.156;15.954;2023-07-29T02:51:30;22.80;60.00
37232;DHT22;23125;48.156;15.954;2023-07-29T02:53:56;22.80;60.10
37232;DHT22;23125;48.156;15.954;2023-07-29T02:56:22;22.80;60.10
37232;DHT22;23125;48.156;15.954;2023-07-29T02:58:48;22.80;60.30
37232;DHT22;23125;48.156;15.954;2023-07-29T03:01:14;22.80;60.30
37232;DHT22;23125;48.156;15.954;2023-07-29T03:03:40;22.80;60.30
37232;DHT22;23125;48.156;15.954;2023-07-29T03:06:10;22.80;60.30
37232;DHT22;23125;48.156;15.954;2023-07-29T03:08:36;22.80;60.30
37232;DHT22;23125;48.156;15.954;2023-07-29T03:11:16;22.80;60.20
37232;DHT22;23125;48.156;15.954;2023-07-29T03:13:42;22.80;60.30
37232;DHT22;23125;48.156;15.954;2023-07-29T03:16:10;22.80;60.20
37232;DHT22;23125;48.156;15.954;2023-07-29T03:18:36;22.80;60.30
37232;DHT22;23125;48.156;15.954;2023-07-29T03:21:03;22.70;60.50
37232;DHT22;23125;48.156;15.954;2023-07-29T03:23:30;22.70;60.60
37232;DHT22;23125;48.156;15.954;2023-07-29T03:25:57;22.70;60.70
37232;DHT22;23125;48.156;15.954;2023-07-29T03:28:29;22.70;60.70
37232;DHT22;23125;48.156;15.954;2023-07-29T03:30:56;22.70;60.80
37232;DHT22;23125;48.156;15.954;2023-07-29T03:33:26;22.70;60.60
37232;DHT22;23125;48.156;15.954;2023-07-29T03:35:52;22.70;60.60
37232;DHT22;23125;48.156;15.954;2023-07-29T03:38:18;22.70;60.50
37232;DHT22;23125;48.156;15.954;2023-07-29T03:40:44;22.70;60.60
37232;DHT22;23125;48.156;15.954;2023-07-29T03:43:10;22.60;60.70
37232;DHT22;23125;48.156;15.954;2023-07-29T03:45:36;22.60;60.70
37232;DHT22;23125;48.156;15.954;2023-07-29T03:48:04;22.60;60.80
37232;DHT22;23125;48.156;15.954;2023-07-29T03:50:30;22.60;60.90
37232;DHT22;23125;48.156;15.954;2023-07-29T03:52:56;22.60;61.10
37232;DHT22;23125;48.156;15.954;2023-07-29T03:55:22;22.60;61.20
37232;DHT22;23125;48.156;15.954;2023-07-29T03:57:48;22.60;61.90
37232;DHT22;23125;48.156;15.954;2023-07-29T04:00:14;22.60;61.30
37232;DHT22;23125;48.156;15.954;2023-07-29T04:02:41;22.60;61.30
37232;DHT22;23125;48.156;15.954;2023-07-29T04:05:08;22.70;61.50
37232;DHT22;23125;48.156;15.954;2023-07-29T04:07:37;22.70;61.40
37232;DHT22;23125;48.156;15.954;2023-07-29T04:10:03;22.70;61.40
37232;DHT22;23125;48.156;15.954;2023-07-29T04:12:30;22.70;61.30
37232;DHT22;23125;48.156;15.954;2023-07-29T04:14:56;22.70;61.30
37232;DHT22;23125;48.156;15.954;2023-07-29T04:17:22;22.70;61.40
37232;DHT22;23125;48.156;15.954;2023-07-29T04:19:48;22.80;61.40
37232;DHT22;23125;48.156;15.954;2023-07-29T04:22:15;22.80;61.40
37232;DHT22;23125;48.156;15.954;2023-07-29T04:24:41;22.80;61.50
37232;DHT22;23125;48.156;15.954;2023-07-29T04:27:07;22.80;61.50
37232;DHT22;23125;48.156;15.954;2023-07-29T04:29:33;22.90;61.50
37232;DHT22;23125;48.156;15.954;2023-07-29T04:32:02;22.90;61.40
37232;DHT22;23125;48.156;15.954;2023-07-29T04:34:28;22.90;61.50
37232;DHT22;23125;48.156;15.954;2023-07-29T04:36:54;22.90;61.50
37232;DHT22;23125;48.156;15.954;2023-07-29T04:39:20;23.00;61.60
37232;DHT22;23125;48.156;15.954;2023-07-29T04:41:46;23.00;61.70
37232;DHT22;23125;48.156;15.954;2023-07-29T04:44:12;23.10;61.80
37232;DHT22;23125;48.156;15.954;2023-07-29T04:46:38;23.20;61.80
37232;DHT22;23125;48.156;15.954;2023-07-29T04:49:04;23.20;61.90
37232;DHT22;23125;48.156;15.954;2023-07-29T04:51:31;23.30;62.00
37232;DHT22;23125;48.156;15.954;2023-07-29T04:53:59;23.40;62.00
37232;DHT22;23125;48.156;15.954;2023-07-29T04:56:25;23.50;62.00
37232;DHT22;23125;48.156;15.954;2023-07-29T04:58:51;23.60;62.00
37232;DHT22;23125;48.156;15.954;2023-07-29T05:01:18;23.70;61.90
37232;DHT22;23125;48.156;15.954;2023-07-29T05:03:44;23.80;61.80
37232;DHT22;23125;48.156;15.954;2023-07-29T05:06:10;23.90;61.70
37232;DHT22;23125;48.156;15.954;2023-07-29T05:08:36;24.00;61.40
37232;DHT22;23125;48.156;15.954;2023-07-29T05:11:02;24.00;61.10
37232;DHT22;23125;48.156;15.954;2023-07-29T05:13:28;24.10;60.80
37232;DHT22;23125;48.156;15.954;2023-07-29T05:15:54;24.10;60.80
37232;DHT22;23125;48.156;15.954;2023-07-29T05:18:20;24.10;60.60
37232;DHT22;23125;48.156;15.954;2023-07-29T05:20:47;24.10;60.40
37232;DHT22;23125;48.156;15.954;2023-07-29T05:23:13;24.20;60.80
37232;DHT22;23125;48.156;15.954;2023-07-29T05:25:39;24.20;60.70
37232;DHT22;23125;48.156;15.954;2023-07-29T05:28:05;24.30;60.60
37232;DHT22;23125;48.156;15.954;2023-07-29T05:30:32;24.40;60.50
37232;DHT22;23125;48.156;15.954;2023-07-29T05:33:03;24.50;60.30
37232;DHT22;23125;48.156;15.954;2023-07-29T05:35:30;24.60;60.10
37232;DHT22;23125;48.156;15.954;2023-07-29T05:37:56;24.70;59.50
37232;DHT22;23125;48.156;15.954;2023-07-29T05:40:21;24.70;59.10
37232;DHT22;23125;48.156;15.954;2023-07-29T05:42:48;24.70;58.80
37232;DHT22;23125;48.156;15.954;2023-07-29T05:45:14;24.90;59.20
37232;DHT22;23125;48.156;15.954;2023-07-29T05:47:39;25.00;59.20
37232;DHT22;23125;48.156;15.954;2023-07-29T05:50:06;25.30;59.00
37232;DHT22;23125;48.156;15.954;2023-07-29T05:52:32;25.60;58.60
37232;DHT22;23125;48.156;15.954;2023-07-29T05:54:58;25.60;57.30
37232;DHT22;23125;48.156;15.954;2023-07-29T05:57:24;25.60;57.20
37232;DHT22;23125;48.156;15.954;2023-07-29T05:59:49;25.60;57.10
37232;DHT22;23125;48.156;15.954;2023-07-29T06:02:15;25.70;56.90
37232;DHT22;23125;48.156;15.954;2023-07-29T06:04:41;25.80;56.50
37232;DHT22;23125;48.156;15.954;2023-07-29T06:07:07;26.20;58.00
37232;DHT22;23125;48.156;15.954;2023-07-29T06:09:33;26.60;57.40
37232;DHT22;23125;48.156;15.954;2023-07-29T06:11:59;26.70;55.90
37232;DHT22;23125;48.156;15.954;2023-07-29T06:14:24;26.80;55.30
37232;DHT22;23125;48.156;15.954;2023-07-29T06:16:50;26.90;54.90
37232;DHT22;23125;48.156;15.954;2023-07-29T06:19:17;27.10;55.40
37232;DHT22;23125;48.156;15.954;2023-07-29T06:21:43;27.70;57.20
37232;DHT22;23125;48.156;15.954;2023-07-29T06:24:09;28.60;56.60
37232;DHT22;23125;48.156;15.954;2023-07-29T06:26:35;29.60;55.60
37232;DHT22;23125;48.156;15.954;2023-07-29T06:29:01;30.50;53.60
37232;DHT22;23125;48.156;15.954;2023-07-29T06:31:27;31.20;51.00
37232;DHT22;23125;48.156;15.954;2023-07-29T06:33:53;31.40;48.10
37232;DHT22;23125;48.156;15.954;2023-07-29T06:36:20;31.50;47.40
37232;DHT22;23125;48.156;15.954;2023-07-29T06:38:46;31.60;46.00
37232;DHT22;23125;48.156;15.954;2023-07-29T06:41:12;31.80;46.50
37232;DHT22;23125;48.156;15.954;2023-07-29T06:43:37;32.20;45.80
37232;DHT22;23125;48.156;15.954;2023-07-29T06:46:03;32.90;46.50
37232;DHT22;23125;48.156;15.954;2023-07-29T06:48:29;33.60;44.90
37232;DHT22;23125;48.156;15.954;2023-07-29T06:50:55;34.30;44.00
37232;DHT22;23125;48.156;15.954;2023-07-29T06:53:26;34.90;43.00
37232;DHT22;23125;48.156;15.954;2023-07-29T06:55:52;35.60;42.10
37232;DHT22;23125;48.156;15.954;2023-07-29T06:58:18;36.20;40.50
37232;DHT22;23125;48.156;15.954;2023-07-29T07:00:44;36.60;39.60
37232;DHT22;23125;48.156;15.954;2023-07-29T07:03:10;37.00;38.60
37232;DHT22;23125;48.156;15.954;2023-07-29T07:05:36;37.30;37.50
37232;DHT22;23125;48.156;15.954;2023-07-29T07:08:02;37.60;37.00
37232;DHT22;23125;48.156;15.954;2023-07-29T07:10:28;37.90;36.50
37232;DHT22;23125;48.156;15.954;2023-07-29T07:12:54;38.10;36.00
37232;DHT22;23125;48.156;15.954;2023-07-29T07:15:19;38.40;35.20
37232;DHT22;23125;48.156;15.954;2023-07-29T07:17:45;38.60;34.70
37232;DHT22;23125;48.156;15.954;2023-07-29T07:20:11;38.90;34.30
37232;DHT22;23125;48.156;15.954;2023-07-29T07:22:37;39.10;33.70
37232;DHT22;23125;48.156;15.954;2023-07-29T07:25:03;39.30;33.50
37232;DHT22;23125;48.156;15.954;2023-07-29T07:27:30;39.50;33.00
37232;DHT22;23125;48.156;15.954;2023-07-29T07:29:55;39.70;32.50
37232;DHT22;23125;48.156;15.954;2023-07-29T07:32:21;39.70;31.80
37232;DHT22;23125;48.156;15.954;2023-07-29T07:34:47;39.80;31.70
37232;DHT22;23125;48.156;15.954;2023-07-29T07:37:13;39.90;31.40
37232;DHT22;23125;48.156;15.954;2023-07-29T07:39:39;39.90;31.20
37232;DHT22;23125;48.156;15.954;2023-07-29T07:42:05;40.10;31.00
37232;DHT22;23125;48.156;15.954;2023-07-29T07:44:31;40.20;30.70
37232;DHT22;23125;48.156;15.954;2023-07-29T07:46:56;40.30;30.70
37232;DHT22;23125;48.156;15.954;2023-07-29T07:49:22;40.50;30.50
37232;DHT22;23125;48.156;15.954;2023-07-29T07:51:48;40.50;30.00
37232;DHT22;23125;48.156;15.954;2023-07-29T07:54:14;40.60;30.10
37232;DHT22;23125;48.156;15.954;2023-07-29T07:56:40;40.70;30.00
37232;DHT22;23125;48.156;15.954;2023-07-29T07:59:06;40.80;29.80
37232;DHT22;23125;48.156;15.954;2023-07-29T08:01:36;40.80;29.70
37232;DHT22;23125;48.156;15.954;2023-07-29T08:04:02;40.90;29.60
37232;DHT22;23125;48.156;15.954;2023-07-29T08:06:29;40.80;29.20
37232;DHT22;23125;48.156;15.954;2023-07-29T08:08:55;40.80;29.20
37232;DHT22;23125;48.156;15.954;2023-07-29T08:11:21;40.80;29.20
37232;DHT22;23125;48.156;15.954;2023-07-29T08:13:46;40.90;29.20
37232;DHT22;23125;48.156;15.954;2023-07-29T08:16:12;40.80;29.10
37232;DHT22;23125;48.156;15.954;2023-07-29T08:18:39;40.90;29.00
37232;DHT22;23125;48.156;15.954;2023-07-29T08:21:04;40.90;28.80
37232;DHT22;23125;48.156;15.954;2023-07-29T08:23:34;40.80;28.60
37232;DHT22;23125;48.156;15.954;2023-07-29T08:26:03;40.70;28.60
37232;DHT22;23125;48.156;15.954;2023-07-29T08:28:38;40.60;28.60
37232;DHT22;23125;48.156;15.954;2023-07-29T08:31:05;40.60;28.60
37232;DHT22;23125;48.156;15.954;2023-07-29T08:33:32;40.70;28.80
37232;DHT22;23125;48.156;15.954;2023-07-29T08:36:02;40.80;28.70
37232;DHT22;23125;48.156;15.954;2023-07-29T08:38:28;40.80;28.50
37232;DHT22;23125;48.156;15.954;2023-07-29T08:41:10;40.80;28.60
37232;DHT22;23125;48.156;15.954;2023-07-29T08:43:42;40.80;28.40
37232;DHT22;23125;48.156;15.954;2023-07-29T08:46:09;40.80;28.60
37232;DHT22;23125;48.156;15.954;2023-07-29T08:48:43;40.90;28.60
37232;DHT22;23125;48.156;15.954;2023-07-29T08:51:10;40.90;28.40
37232;DHT22;23125;48.156;15.954;2023-07-29T08:53:37;40.90;28.30
37232;DHT22;23125;48.156;15.954;2023-07-29T08:56:03;40.90;28.20
37232;DHT22;23125;48.156;15.954;2023-07-29T08:58:31;40.90;28.10
37232;DHT22;23125;48.156;15.954;2023-07-29T09:00:58;40.80;28.10
37232;DHT22;23125;48.156;15.954;2023-07-29T09:03:23;40.80;28.20
37232;DHT22;23125;48.156;15.954;2023-07-29T09:05:50;40.90;28.30
37232;DHT22;23125;48.156;15.954;2023-07-29T09:08:16;40.90;28.20
37232;DHT22;23125;48.156;15.954;2023-07-29T09:10:43;40.90;28.30
37232;DHT22;23125;48.156;15.954;2023-07-29T09:13:08;40.90;28.30
37232;DHT22;23125;48.156;15.954;2023-07-29T09:15:36;40.90;28.40
37232;DHT22;23125;48.156;15.954;2023-07-29T09:18:16;41.00;28.30
37232;DHT22;23125;48.156;15.954;2023-07-29T09:20:45;41.00;28.20
37232;DHT22;23125;48.156;15.954;2023-07-29T09:23:11;41.10;28.30
37232;DHT22;23125;48.156;15.954;2023-07-29T09:25:38;41.10;28.30
37232;DHT22;23125;48.156;15.954;2023-07-29T09:28:11;41.00;28.10
37232;DHT22;23125;48.156;15.954;2023-07-29T09:30:45;40.90;28.00
37232;DHT22;23125;48.156;15.954;2023-07-29T09:33:11;40.90;28.20
37232;DHT22;23125;48.156;15.954;2023-07-29T09:35:38;40.80;28.10
37232;DHT22;23125;48.156;15.954;2023-07-29T09:38:05;40.70;28.10
37232;DHT22;23125;48.156;15.954;2023-07-29T09:40:35;40.70;28.30
37232;DHT22;23125;48.156;15.954;2023-07-29T09:43:02;40.70;28.40
37232;DHT22;23125;48.156;15.954;2023-07-29T09:45:28;40.70;28.30
37232;DHT22;23125;48.156;15.954;2023-07-29T09:47:54;40.70;28.30
37232;DHT22;23125;48.156;15.954;2023-07-29T09:50:25;40.60;28.20
37232;DHT22;23125;48.156;15.954;2023-07-29T09:52:53;40.70;28.40
37232;DHT22;23125;48.156;15.954;2023-07-29T09:55:21;40.70;28.20
37232;DHT22;23125;48.156;15.954;2023-07-29T09:57:57;40.50;27.90
37232;DHT22;23125;48.156;15.954;2023-07-29T10:00:27;40.50;27.80
37232;DHT22;23125;48.156;15.954;2023-07-29T10:02:54;40.50;28.20
37232;DHT22;23125;48.156;15.954;2023-07-29T10:05:22;40.50;28.20
37232;DHT22;23125;48.156;15.954;2023-07-29T10:07:49;40.50;28.20
37232;DHT22;23125;48.156;15.954;2023-07-29T10:10:16;40.50;28.30
37232;DHT22;23125;48.156;15.954;2023-07-29T10:12:43;40.50;28.40
37232;DHT22;23125;48.156;15.954;2023-07-29T10:15:09;40.50;28.20
37232;DHT22;23125;48.156;15.954;2023-07-29T10:17:37;40.50;28.10
37232;DHT22;23125;48.156;15.954;2023-07-29T10:20:08;40.40;28.00
37232;DHT22;23125;48.156;15.954;2023-07-29T10:22:39;40.20;27.80
37232;DHT22;23125;48.156;15.954;2023-07-29T10:25:13;40.00;27.90
37232;DHT22;23125;48.156;15.954;2023-07-29T10:27:52;39.80;28.00
37232;DHT22;23125;48.156;15.954;2023-07-29T10:30:19;39.50;28.20
37232;DHT22;23125;48.156;15.954;2023-07-29T10:32:46;39.30;28.30
37232;DHT22;23125;48.156;15.954;2023-07-29T10:35:13;39.10;28.50
37232;DHT22;23125;48.156;15.954;2023-07-29T10:37:39;39.00;28.90
37232;DHT22;23125;48.156;15.954;2023-07-29T10:40:08;38.80;28.80
37232;DHT22;23125;48.156;15.954;2023-07-29T10:42:35;38.70;29.10
37232;DHT22;23125;48.156;15.954;2023-07-29T10:45:21;38.60;29.30
37232;DHT22;23125;48.156;15.954;2023-07-29T10:47:48;38.60;29.50
37232;DHT22;23125;48.156;15.954;2023-07-29T10:50:19;38.70;29.50
37232;DHT22;23125;48.156;15.954;2023-07-29T10:52:52;38.60;29.80
37232;DHT22;23125;48.156;15.954;2023-07-29T10:55:26;38.50;29.30
37232;DHT22;23125;48.156;15.954;2023-07-29T10:57:52;38.40;29.20
37232;DHT22;23125;48.156;15.954;2023-07-29T11:00:31;38.20;29.30
37232;DHT22;23125;48.156;15.954;2023-07-29T11:03:05;38.10;29.40
37232;DHT22;23125;48.156;15.954;2023-07-29T11:05:49;37.90;29.40
37232;DHT22;23125;48.156;15.954;2023-07-29T11:08:22;37.80;29.50
37232;DHT22;23125;48.156;15.954;2023-07-29T11:11:06;37.70;30.20
37232;DHT22;23125;48.156;15.954;2023-07-29T11:13:35;37.70;29.90
37232;DHT22;23125;48.156;15.954;2023-07-29T11:16:01;37.70;30.10
37232;DHT22;23125;48.156;15.954;2023-07-29T11:18:35;37.60;30.10
37232;DHT22;23125;48.156;15.954;2023-07-29T11:21:02;37.60;30.20
37232;DHT22;23125;48.156;15.954;2023-07-29T11:23:34;37.50;30.40
37232;DHT22;23125;48.156;15.954;2023-07-29T11:26:01;37.40;30.00
37232;DHT22;23125;48.156;15.954;2023-07-29T11:28:28;37.30;30.10
37232;DHT22;23125;48.156;15.954;2023-07-29T11:30:55;37.20;30.00
37232;DHT22;23125;48.156;15.954;2023-07-29T11:33:26;36.90;30.00
37232;DHT22;23125;48.156;15.954;2023-07-29T11:35:54;36.80;30.00
37232;DHT22;23125;48.156;15.954;2023-07-29T11:38:21;36.60;30.10
37232;DHT22;23125;48.156;15.954;2023-07-29T11:41:00;36.50;31.00
37232;DHT22;23125;48.156;15.954;2023-07-29T11:43:28;36.30;30.60
37232;DHT22;23125;48.156;15.954;2023-07-29T11:45:54;36.20;31.00
37232;DHT22;23125;48.156;15.954;2023-07-29T11:48:32;36.00;31.00
37232;DHT22;23125;48.156;15.954;2023-07-29T11:50:58;35.80;31.10
37232;DHT22;23125;48.156;15.954;2023-07-29T11:53:29;35.70;31.40
37232;DHT22;23125;48.156;15.954;2023-07-29T11:55:58;35.60;31.70
37232;DHT22;23125;48.156;15.954;2023-07-29T11:58:24;35.50;32.00
37232;DHT22;23125;48.156;15.954;2023-07-29T12:00:51;35.30;32.00
37232;DHT22;23125;48.156;15.954;2023-07-29T12:03:17;35.30;32.30
37232;DHT22;23125;48.156;15.954;2023-07-29T12:05:44;35.20;32.50
37232;DHT22;23125;48.156;15.954;2023-07-29T12:08:10;35.10;32.20
37232;DHT22;23125;48.156;15.954;2023-07-29T12:10:37;34.90;32.60
37232;DHT22;23125;48.156;15.954;2023-07-29T12:13:03;34.80;33.00
37232;DHT22;23125;48.156;15.954;2023-07-29T12:15:30;34.70;33.50
37232;DHT22;23125;48.156;15.954;2023-07-29T12:17:57;34.70;33.90
37232;DHT22;23125;48.156;15.954;2023-07-29T12:20:24;34.60;33.70
37232;DHT22;23125;48.156;15.954;2023-07-29T12:22:58;34.60;33.80
37232;DHT22;23125;48.156;15.954;2023-07-29T12:25:27;34.50;33.60
37232;DHT22;23125;48.156;15.954;2023-07-29T12:27:53;34.40;33.60
37232;DHT22;23125;48.156;15.954;2023-07-29T12:30:22;34.30;33.70
37232;DHT22;23125;48.156;15.954;2023-07-29T12:32:50;34.20;33.80
37232;DHT22;23125;48.156;15.954;2023-07-29T12:35:16;34.20;34.10
37232;DHT22;23125;48.156;15.954;2023-07-29T12:37:42;34.20;33.90
37232;DHT22;23125;48.156;15.954;2023-07-29T12:40:29;34.20;34.00
37232;DHT22;23125;48.156;15.954;2023-07-29T12:42:55;34.10;33.90
37232;DHT22;23125;48.156;15.954;2023-07-29T12:45:21;34.10;33.50
37232;DHT22;23125;48.156;15.954;2023-07-29T12:47:52;34.00;33.30
37232;DHT22;23125;48.156;15.954;2023-07-29T12:50:18;34.00;33.50
37232;DHT22;23125;48.156;15.954;2023-07-29T12:52:44;33.90;33.50
37232;DHT22;23125;48.156;15.954;2023-07-29T12:55:10;33.80;33.70
37232;DHT22;23125;48.156;15.954;2023-07-29T12:57:41;33.80;33.80
37232;DHT22;23125;48.156;15.954;2023-07-29T13:00:07;33.70;33.70
37232;DHT22;23125;48.156;15.954;2023-07-29T13:02:34;33.60;33.90
37232;DHT22;23125;48.156;15.954;2023-07-29T13:05:00;33.50;34.10
37232;DHT22;23125;48.156;15.954;2023-07-29T13:07:26;33.50;34.30
37232;DHT22;23125;48.156;15.954;2023-07-29T13:09:52;33.50;34.50
37232;DHT22;23125;48.156;15.954;2023-07-29T13:12:18;33.50;34.50
37232;DHT22;23125;48.156;15.954;2023-07-29T13:14:43;33.50;34.70
37232;DHT22;23125;48.156;15.954;2023-07-29T13:17:09;33.40;34.70
37232;DHT22;23125;48.156;15.954;2023-07-29T13:19:35;33.40;35.00
37232;DHT22;23125;48.156;15.954;2023-07-29T13:22:01;33.40;35.10
37232;DHT22;23125;48.156;15.954;2023-07-29T13:24:28;33.40;35.00
37232;DHT22;23125;48.156;15.954;2023-07-29T13:26:53;33.40;35.10
37232;DHT22;23125;48.156;15.954;2023-07-29T13:29:19;33.40;34.90
37232;DHT22;23125;48.156;15.954;2023-07-29T13:31:45;33.40;35.20
37232;DHT22;23125;48.156;15.954;2023-07-29T13:34:11;33.40;35.20
37232;DHT22;23125;48.156;15.954;2023-07-29T13:36:37;33.40;34.90
37232;DHT22;23125;48.156;15.954;2023-07-29T13:39:02;33.40;35.00
37232;DHT22;23125;48.156;15.954;2023-07-29T13:41:28;33.30;34.80
37232;DHT22;23125;48.156;15.954;2023-07-29T13:43:54;33.30;34.80
37232;DHT22;23125;48.156;15.954;2023-07-29T13:46:20;33.30;35.00
37232;DHT22;23125;48.156;15.954;2023-07-29T13:48:47;33.30;35.20
37232;DHT22;23125;48.156;15.954;2023-07-29T13:51:13;33.40;35.40
37232;DHT22;23125;48.156;15.954;2023-07-29T13:53:38;33.40;35.40
37232;DHT22;23125;48.156;15.954;2023-07-29T13:56:04;33.50;35.50
37232;DHT22;23125;48.156;15.954;2023-07-29T13:58:30;33.50;35.40
37232;DHT22;23125;48.156;15.954;2023-07-29T14:00:56;33.60;35.40
37232;DHT22;23125;48.156;15.954;2023-07-29T14:03:22;33.60;34.80
37232;DHT22;23125;48.156;15.954;2023-07-29T14:05:48;33.60;34.60
37232;DHT22;23125;48.156;15.954;2023-07-29T14:08:13;33.60;34.60
37232;DHT22;23125;48.156;15.954;2023-07-29T14:10:39;33.50;34.10
37232;DHT22;23125;48.156;15.954;2023-07-29T14:13:05;33.40;34.10
37232;DHT22;23125;48.156;15.954;2023-07-29T14:15:31;33.40;34.20
37232;DHT22;23125;48.156;15.954;2023-07-29T14:17:58;33.20;34.10
37232;DHT22;23125;48.156;15.954;2023-07-29T14:20:24;33.10;34.20
37232;DHT22;23125;48.156;15.954;2023-07-29T14:22:50;33.10;34.60
37232;DHT22;23125;48.156;15.954;2023-07-29T14:25:16;33.10;34.80
37232;DHT22;23125;48.156;15.954;2023-07-29T14:27:42;33.10;34.90
37232;DHT22;23125;48.156;15.954;2023-07-29T14:30:07;33.00;35.00
37232;DHT22;23125;48.156;15.954;2023-07-29T14:32:33;33.00;35.00
37232;DHT22;23125;48.156;15.954;2023-07-29T14:34:59;32.80;34.90
37232;DHT22;23125;48.156;15.954;2023-07-29T14:37:30;32.70;35.10
37232;DHT22;23125;48.156;15.954;2023-07-29T14:39:58;32.70;35.50
37232;DHT22;23125;48.156;15.954;2023-07-29T14:42:24;32.70;35.60
37232;DHT22;23125;48.156;15.954;2023-07-29T14:44:50;32.70;35.70
37232;DHT22;23125;48.156;15.954;2023-07-29T14:47:15;32.60;35.80
37232;DHT22;23125;48.156;15.954;2023-07-29T14:49:41;32.60;36.00
37232;DHT22;23125;48.156;15.954;2023-07-29T14:52:07;32.60;36.20
37232;DHT22;23125;48.156;15.954;2023-07-29T14:54:33;32.60;36.60
37232;DHT22;23125;48.156;15.954;2023-07-29T14:56:59;32.70;36.90
37232;DHT22;23125;48.156;15.954;2023-07-29T14:59:25;32.70;37.00
37232;DHT22;23125;48.156;15.954;2023-07-29T15:01:51;32.70;37.20
37232;DHT22;23125;48.156;15.954;2023-07-29T15:04:16;32.70;37.30
37232;DHT22;23125;48.156;15.954;2023-07-29T15:06:42;32.80;37.40
37232;DHT22;23125;48.156;15.954;2023-07-29T15:09:08;32.80;37.20
37232;DHT22;23125;48.156;15.954;2023-07-29T15:11:34;32.80;37.00
37232;DHT22;23125;48.156;15.954;2023-07-29T15:14:01;32.70;36.80
37232;DHT22;23125;48.156;15.954;2023-07-29T15:16:29;32.70;37.20
37232;DHT22;23125;48.156;15.954;2023-07-29T15:18:55;32.60;36.70